< < Back
Terminal Aerodrome Forecast


Current Version              Previous Versions:   1  2  3  4  5  6  7  8  9  

Terminal Aerodrome Forecast

200
FTUS42 KGSP 182332
TAFCLT
TAF
KCLT 182332Z 1900/1924 17005KT P6SM VCSH BKN040 BKN100
     FM190500 11005KT 6SM BR VCSH OVC025
     FM190700 12006KT 4SM BR VCSH OVC012
     FM191000 11008KT 4SM SHRA BR OVC008
     FM191400 14012G20KT 2SM SHRA BR OVC005 PROB30 1916/1922 4SM
      TSRA OVC008CB=



Latest METAR

809
SAUS70 KWBC 190100 RRB
MTRCLT
METAR KCLT 190052Z 14006KT 10SM -RA FEW070 BKN110 OVC140 22/15 A2997 RMK
AO2 RAB47 SLP142 P0000 T02220150


USA.gov is the U.S. government's official web portal to all federal, state and local government web resources and services.